Time;durP1;ratioP1;P1;durP2;ratioP2;P2;SDS_P1;SDS_P2;PMS_P1;PMS_P2;Temp;Humidity;BMP_temperature;BMP_pressure;BME280_temperature;BME280_humidity;BME280_pressure;Samples;Min_cycle;Max_cycle;Signal;HPM_P1;HPM_P2
2021/07/03 00:01:37;;;;;;;6.03;5.43;;;;;;;;;;480359;247;27514;-72
2021/07/03 00:03:39;;;;;;;6.27;5.30;;;;;;;;;;480340;247;28075;-72
2021/07/03 00:05:41;;;;;;;5.73;5.17;;;;;;;;;;480324;247;27980;-72
2021/07/03 00:07:44;;;;;;;5.70;5.03;;;;;;;;;;480340;247;27966;-72
2021/07/03 00:09:46;;;;;;;5.60;5.00;;;;;;;;;;480370;247;27515;-73
2021/07/03 00:11:48;;;;;;;5.23;4.73;;;;;;;;;;480365;242;28300;-73
2021/07/03 00:13:50;;;;;;;5.40;4.90;;;;;;;;;;480360;247;27499;-73
2021/07/03 00:15:52;;;;;;;5.33;4.57;;;;;;;;;;480318;247;27637;-73
2021/07/03 00:17:54;;;;;;;5.47;4.93;;;;;;;;;;480339;247;27514;-73
2021/07/03 00:19:56;;;;;;;5.07;4.57;;;;;;;;;;480354;247;28771;-72
2021/07/03 00:21:58;;;;;;;5.33;4.83;;;;;;;;;;480346;247;29307;-73
2021/07/03 00:24:01;;;;;;;5.80;5.20;;;;;;;;;;480360;247;27545;-72
2021/07/03 00:26:03;;;;;;;5.03;4.47;;;;;;;;;;480356;247;27668;-73
2021/07/03 00:28:05;;;;;;;4.83;4.33;;;;;;;;;;480351;247;27736;-72
2021/07/03 00:30:07;;;;;;;4.97;4.47;;;;;;;;;;480324;247;29203;-72
2021/07/03 00:32:09;;;;;;;6.27;5.03;;;;;;;;;;480328;247;27678;-73
2021/07/03 00:34:11;;;;;;;6.23;5.03;;;;;;;;;;480335;247;28096;-72
2021/07/03 00:36:13;;;;;;;6.20;5.33;;;;;;;;;;480361;247;27630;-72
2021/07/03 00:38:15;;;;;;;6.33;5.30;;;;;;;;;;480290;247;28851;-73
2021/07/03 00:40:17;;;;;;;5.70;5.10;;;;;;;;;;480350;247;28103;-73
2021/07/03 00:42:20;;;;;;;7.90;5.30;;;;;;;;;;480357;247;28550;-72
2021/07/03 00:44:22;;;;;;;5.73;5.23;;;;;;;;;;480306;247;28104;-73
2021/07/03 00:46:24;;;;;;;8.43;5.13;;;;;;;;;;480324;247;28459;-73
2021/07/03 00:48:26;;;;;;;5.20;4.70;;;;;;;;;;480326;247;28073;-73
2021/07/03 00:50:28;;;;;;;5.37;4.87;;;;;;;;;;480343;247;28491;-73
2021/07/03 00:52:30;;;;;;;5.60;4.77;;;;;;;;;;480318;243;27659;-73
2021/07/03 00:54:32;;;;;;;4.93;4.50;;;;;;;;;;480326;247;28178;-73
2021/07/03 00:56:34;;;;;;;5.10;4.60;;;;;;;;;;480340;247;27549;-73
2021/07/03 00:58:36;;;;;;;5.43;4.93;;;;;;;;;;480344;247;28342;-73
2021/07/03 01:00:39;;;;;;;5.97;5.40;;;;;;;;;;480333;247;28690;-75
2021/07/03 01:02:41;;;;;;;5.13;4.63;;;;;;;;;;480360;247;27499;-73
2021/07/03 01:04:43;;;;;;;5.73;5.13;;;;;;;;;;480334;247;27992;-73
2021/07/03 01:06:45;;;;;;;5.47;4.97;;;;;;;;;;480336;247;28084;-73
2021/07/03 01:08:47;;;;;;;5.97;5.37;;;;;;;;;;480341;247;27973;-73
2021/07/03 01:10:49;;;;;;;6.93;5.10;;;;;;;;;;480349;247;28262;-73
2021/07/03 01:12:51;;;;;;;5.23;4.73;;;;;;;;;;480268;245;28203;-73
2021/07/03 01:14:53;;;;;;;4.60;4.20;;;;;;;;;;480189;247;27713;-72
2021/07/03 01:16:56;;;;;;;6.97;5.53;;;;;;;;;;480354;247;27589;-73
2021/07/03 01:18:58;;;;;;;5.50;4.90;;;;;;;;;;480342;247;27708;-73
2021/07/03 01:21:00;;;;;;;5.30;4.80;;;;;;;;;;480344;247;28495;-72
2021/07/03 01:23:02;;;;;;;5.60;5.00;;;;;;;;;;480331;247;28696;-73
2021/07/03 01:25:04;;;;;;;5.53;5.03;;;;;;;;;;480264;247;28965;-73
2021/07/03 01:27:06;;;;;;;5.20;4.70;;;;;;;;;;480332;247;28448;-73
2021/07/03 01:29:08;;;;;;;5.97;5.37;;;;;;;;;;480346;247;28708;-73
2021/07/03 01:31:10;;;;;;;5.63;5.13;;;;;;;;;;480336;247;28895;-73
2021/07/03 01:33:12;;;;;;;5.50;5.00;;;;;;;;;;480310;247;28519;-72
2021/07/03 01:35:15;;;;;;;6.60;4.73;;;;;;;;;;480327;247;28482;-73
2021/07/03 01:37:17;;;;;;;5.63;4.67;;;;;;;;;;480337;247;27978;-73
2021/07/03 01:39:19;;;;;;;5.67;5.07;;;;;;;;;;480294;247;28640;-73
2021/07/03 01:41:21;;;;;;;5.70;5.10;;;;;;;;;;480300;247;28581;-73
2021/07/03 01:43:23;;;;;;;5.73;5.23;;;;;;;;;;480278;247;29671;-73
2021/07/03 01:45:25;;;;;;;5.20;4.70;;;;;;;;;;480311;247;28602;-73
2021/07/03 01:47:27;;;;;;;5.53;5.03;;;;;;;;;;480328;247;28554;-73
2021/07/03 01:49:29;;;;;;;5.90;5.30;;;;;;;;;;480285;247;28031;-73
2021/07/03 01:51:32;;;;;;;5.90;4.63;;;;;;;;;;480326;247;28282;-73
2021/07/03 01:53:34;;;;;;;5.23;4.73;;;;;;;;;;480353;247;28605;-73
2021/07/03 01:55:36;;;;;;;6.43;5.43;;;;;;;;;;480366;247;28429;-73
2021/07/03 01:57:38;;;;;;;5.70;5.13;;;;;;;;;;480318;247;29094;-73
2021/07/03 01:59:40;;;;;;;7.83;6.00;;;;;;;;;;480309;247;28072;-73
2021/07/03 02:01:42;;;;;;;7.00;5.50;;;;;;;;;;480363;247;28368;-73
2021/07/03 02:03:44;;;;;;;5.80;5.10;;;;;;;;;;480347;247;28623;-73
2021/07/03 02:05:46;;;;;;;6.70;5.40;;;;;;;;;;480339;247;28962;-73
2021/07/03 02:07:49;;;;;;;5.50;5.00;;;;;;;;;;480327;247;28668;-73
2021/07/03 02:09:51;;;;;;;5.70;4.80;;;;;;;;;;480339;247;28072;-73
2021/07/03 02:11:53;;;;;;;6.30;5.67;;;;;;;;;;480366;246;28858;-73
2021/07/03 02:13:55;;;;;;;5.90;5.30;;;;;;;;;;480370;247;28357;-73
2021/07/03 02:15:57;;;;;;;5.10;4.60;;;;;;;;;;480343;247;28582;-72
2021/07/03 02:17:59;;;;;;;6.60;5.70;;;;;;;;;;480358;247;28139;-73
2021/07/03 02:20:01;;;;;;;6.60;5.40;;;;;;;;;;480383;247;28537;-73
2021/07/03 02:24:25;;;;;;;6.07;5.00;;;;;;;;;;472474;251;28061;-73
2021/07/03 02:26:27;;;;;;;5.50;5.00;;;;;;;;;;472457;249;28825;-73
2021/07/03 02:28:29;;;;;;;5.20;4.70;;;;;;;;;;472448;250;28609;-73
2021/07/03 02:30:31;;;;;;;5.70;5.10;;;;;;;;;;472503;249;29445;-73
2021/07/03 02:32:33;;;;;;;4.93;4.50;;;;;;;;;;472507;249;28593;-73
2021/07/03 02:34:36;;;;;;;5.27;4.80;;;;;;;;;;472486;249;28827;-73
2021/07/03 02:36:38;;;;;;;6.67;5.30;;;;;;;;;;472478;249;28560;-72
2021/07/03 02:38:40;;;;;;;5.30;4.80;;;;;;;;;;472484;249;27668;-72
2021/07/03 02:40:42;;;;;;;5.90;5.30;;;;;;;;;;472435;249;29104;-74
2021/07/03 02:42:44;;;;;;;5.43;4.93;;;;;;;;;;472500;249;28050;-73
2021/07/03 02:44:46;;;;;;;8.60;4.90;;;;;;;;;;472480;249;29158;-73
2021/07/03 02:46:48;;;;;;;5.40;4.90;;;;;;;;;;472522;249;28371;-73
2021/07/03 02:48:50;;;;;;;4.73;4.33;;;;;;;;;;472500;249;28923;-73
2021/07/03 02:50:53;;;;;;;7.40;5.40;;;;;;;;;;472473;249;29064;-72
2021/07/03 02:52:55;;;;;;;5.30;4.77;;;;;;;;;;472445;249;28329;-73
2021/07/03 02:54:57;;;;;;;5.27;4.77;;;;;;;;;;472480;249;28888;-73
2021/07/03 02:56:59;;;;;;;5.27;4.77;;;;;;;;;;472492;249;28326;-73
2021/07/03 02:59:01;;;;;;;6.30;5.00;;;;;;;;;;472458;250;28561;-73
2021/07/03 03:01:03;;;;;;;5.27;4.70;;;;;;;;;;472488;249;28136;-73
2021/07/03 03:03:05;;;;;;;4.83;4.43;;;;;;;;;;472500;249;28462;-73
2021/07/03 03:05:07;;;;;;;5.40;4.90;;;;;;;;;;472469;249;29061;-73
2021/07/03 03:07:10;;;;;;;5.30;4.80;;;;;;;;;;472487;249;28094;-73
2021/07/03 03:09:12;;;;;;;4.77;4.37;;;;;;;;;;472486;249;28717;-73
2021/07/03 03:11:14;;;;;;;5.63;5.03;;;;;;;;;;472482;249;28111;-72
2021/07/03 03:13:16;;;;;;;5.10;4.50;;;;;;;;;;472466;250;28382;-73
2021/07/03 03:15:18;;;;;;;5.63;5.13;;;;;;;;;;472496;249;28338;-73
2021/07/03 03:17:20;;;;;;;5.40;4.90;;;;;;;;;;472390;251;28600;-73
2021/07/03 03:19:22;;;;;;;5.67;5.07;;;;;;;;;;472479;249;28653;-73
2021/07/03 03:21:24;;;;;;;6.27;5.67;;;;;;;;;;472511;249;28376;-72
2021/07/03 03:23:26;;;;;;;6.60;5.27;;;;;;;;;;472479;249;28726;-73
2021/07/03 03:25:29;;;;;;;5.37;4.87;;;;;;;;;;472477;249;28482;-73
2021/07/03 03:27:31;;;;;;;5.53;5.03;;;;;;;;;;472468;249;28421;-73
2021/07/03 03:29:33;;;;;;;5.20;4.70;;;;;;;;;;472482;249;28508;-73
2021/07/03 03:31:35;;;;;;;5.87;5.27;;;;;;;;;;472504;249;28373;-73
2021/07/03 03:33:37;;;;;;;5.50;4.70;;;;;;;;;;472486;249;28848;-73
2021/07/03 03:35:39;;;;;;;6.30;5.27;;;;;;;;;;472470;249;28915;-73
2021/07/03 03:37:41;;;;;;;5.90;5.30;;;;;;;;;;472485;249;28970;-73
2021/07/03 03:39:43;;;;;;;5.20;4.70;;;;;;;;;;472470;249;28496;-72
2021/07/03 03:41:46;;;;;;;6.63;5.47;;;;;;;;;;472480;249;28464;-73
2021/07/03 03:43:48;;;;;;;6.03;4.93;;;;;;;;;;472483;249;28534;-74
2021/07/03 03:45:50;;;;;;;6.27;5.23;;;;;;;;;;472462;249;28289;-72
2021/07/03 03:47:52;;;;;;;5.63;4.60;;;;;;;;;;472477;249;28941;-73
2021/07/03 03:49:54;;;;;;;5.97;5.07;;;;;;;;;;472490;249;28469;-73
2021/07/03 03:51:56;;;;;;;4.80;4.40;;;;;;;;;;472471;249;28715;-73
2021/07/03 03:53:58;;;;;;;5.73;4.50;;;;;;;;;;472479;249;28662;-73
2021/07/03 03:56:00;;;;;;;6.20;5.60;;;;;;;;;;472477;249;28967;-73
2021/07/03 03:58:03;;;;;;;6.07;5.47;;;;;;;;;;472499;249;27994;-73
2021/07/03 04:00:05;;;;;;;5.23;4.67;;;;;;;;;;472418;249;28480;-73
2021/07/03 04:02:07;;;;;;;6.40;5.30;;;;;;;;;;472482;249;28675;-73
2021/07/03 04:04:09;;;;;;;6.20;5.60;;;;;;;;;;472481;249;28229;-72
2021/07/03 04:06:11;;;;;;;5.53;4.70;;;;;;;;;;472396;249;29793;-73
2021/07/03 04:08:13;;;;;;;5.67;5.17;;;;;;;;;;472465;249;28042;-73
2021/07/03 04:10:16;;;;;;;5.43;4.73;;;;;;;;;;472475;249;29268;-72
2021/07/03 04:12:17;;;;;;;5.30;4.57;;;;;;;;;;472526;250;28693;-72
2021/07/03 04:14:19;;;;;;;5.70;5.13;;;;;;;;;;472476;249;28370;-72
2021/07/03 04:16:22;;;;;;;5.43;4.93;;;;;;;;;;472515;249;28066;-73
2021/07/03 04:18:24;;;;;;;5.13;4.67;;;;;;;;;;472496;249;27697;-72
2021/07/03 04:20:26;;;;;;;5.10;4.60;;;;;;;;;;472486;249;28716;-73
2021/07/03 04:22:28;;;;;;;5.40;4.73;;;;;;;;;;472480;249;28522;-72
2021/07/03 04:24:30;;;;;;;6.00;5.37;;;;;;;;;;472445;249;28643;-73
2021/07/03 04:26:32;;;;;;;5.20;4.70;;;;;;;;;;472439;249;28937;-72
2021/07/03 04:28:34;;;;;;;5.67;4.90;;;;;;;;;;472419;249;28634;-73
2021/07/03 04:30:36;;;;;;;5.43;4.93;;;;;;;;;;472401;249;28633;-73
2021/07/03 04:32:39;;;;;;;5.33;4.83;;;;;;;;;;472460;249;28655;-72
2021/07/03 04:34:42;;;;;;;4.90;4.50;;;;;;;;;;472442;249;28627;-72
2021/07/03 04:36:43;;;;;;;5.80;5.20;;;;;;;;;;472409;249;28204;-73
2021/07/03 04:38:45;;;;;;;5.10;4.43;;;;;;;;;;472424;249;28819;-72
2021/07/03 04:40:47;;;;;;;5.33;4.47;;;;;;;;;;472468;249;27687;-73
2021/07/03 04:42:49;;;;;;;5.10;4.60;;;;;;;;;;472504;249;28135;-73
2021/07/03 04:44:51;;;;;;;5.40;4.63;;;;;;;;;;472497;250;27648;-72
2021/07/03 04:46:53;;;;;;;5.63;5.03;;;;;;;;;;472499;249;28765;-73
2021/07/03 04:48:56;;;;;;;6.30;5.00;;;;;;;;;;472483;249;27672;-73
2021/07/03 04:50:58;;;;;;;5.20;4.70;;;;;;;;;;472494;249;28166;-72
2021/07/03 04:53:00;;;;;;;4.97;4.57;;;;;;;;;;472454;249;27642;-73
2021/07/03 04:55:02;;;;;;;5.00;4.40;;;;;;;;;;472470;249;28833;-73
2021/07/03 04:57:07;;;;;;;5.27;4.77;;;;;;;;;;472473;249;29010;-72
2021/07/03 04:59:09;;;;;;;5.13;4.27;;;;;;;;;;472484;249;27720;-73
2021/07/03 05:01:11;;;;;;;4.83;4.43;;;;;;;;;;472452;249;28119;-72
2021/07/03 05:03:13;;;;;;;4.77;4.30;;;;;;;;;;472479;249;27795;-73
2021/07/03 05:05:15;;;;;;;5.10;4.60;;;;;;;;;;472462;249;27776;-72
2021/07/03 05:07:18;;;;;;;7.20;4.63;;;;;;;;;;472445;249;27573;-73
2021/07/03 05:09:20;;;;;;;6.17;5.17;;;;;;;;;;472460;249;27596;-72
2021/07/03 05:11:22;;;;;;;5.27;4.60;;;;;;;;;;472458;249;27637;-73
2021/07/03 05:13:24;;;;;;;5.07;4.57;;;;;;;;;;472459;249;27613;-73
2021/07/03 05:15:27;;;;;;;5.83;4.70;;;;;;;;;;472462;249;28184;-73
2021/07/03 05:17:28;;;;;;;4.97;4.40;;;;;;;;;;472478;250;27665;-72
2021/07/03 05:19:30;;;;;;;5.23;4.73;;;;;;;;;;472479;249;28102;-73
2021/07/03 05:21:32;;;;;;;4.80;4.40;;;;;;;;;;472498;249;27604;-73
2021/07/03 05:23:34;;;;;;;5.07;4.57;;;;;;;;;;472435;249;28050;-73
2021/07/03 05:25:40;;;;;;;7.30;5.00;;;;;;;;;;472474;250;27565;-73
2021/07/03 05:27:39;;;;;;;5.27;4.77;;;;;;;;;;472295;251;27969;-72
2021/07/03 05:29:41;;;;;;;5.23;4.73;;;;;;;;;;472480;249;27525;-73
2021/07/03 05:31:43;;;;;;;5.13;4.63;;;;;;;;;;472483;249;28017;-72
2021/07/03 05:33:45;;;;;;;7.30;4.50;;;;;;;;;;472475;249;27665;-73
2021/07/03 05:35:47;;;;;;;4.23;3.93;;;;;;;;;;472359;249;28028;-73
2021/07/03 05:37:49;;;;;;;4.70;4.30;;;;;;;;;;472463;249;27564;-73
2021/07/03 05:39:51;;;;;;;4.07;3.67;;;;;;;;;;472487;249;28123;-73
2021/07/03 05:41:53;;;;;;;4.63;4.23;;;;;;;;;;472498;250;27639;-73
2021/07/03 05:43:56;;;;;;;5.20;4.70;;;;;;;;;;472506;249;28057;-73
2021/07/03 05:45:58;;;;;;;5.43;4.60;;;;;;;;;;472493;249;27641;-73
2021/07/03 05:48:00;;;;;;;5.00;4.43;;;;;;;;;;472496;249;28138;-74
2021/07/03 05:50:02;;;;;;;6.17;5.57;;;;;;;;;;472517;249;27576;-73
2021/07/03 05:52:04;;;;;;;7.00;4.53;;;;;;;;;;472524;249;28069;-73
2021/07/03 05:54:07;;;;;;;6.70;4.90;;;;;;;;;;472485;249;27580;-72
2021/07/03 05:56:08;;;;;;;6.00;4.60;;;;;;;;;;472477;249;28078;-73
2021/07/03 05:58:10;;;;;;;5.20;4.60;;;;;;;;;;472486;250;27669;-73
2021/07/03 06:00:12;;;;;;;6.30;5.03;;;;;;;;;;472498;249;28039;-73
2021/07/03 06:02:15;;;;;;;5.17;4.50;;;;;;;;;;472432;249;27577;-73
2021/07/03 06:04:17;;;;;;;5.53;4.83;;;;;;;;;;472344;249;28091;-73
2021/07/03 06:06:19;;;;;;;5.47;4.63;;;;;;;;;;472265;249;27576;-73
2021/07/03 06:08:21;;;;;;;6.33;4.57;;;;;;;;;;472269;249;28117;-73
2021/07/03 06:10:23;;;;;;;9.70;5.10;;;;;;;;;;472288;250;27544;-73
2021/07/03 06:12:25;;;;;;;5.07;4.60;;;;;;;;;;472503;249;27991;-73
2021/07/03 06:14:27;;;;;;;5.90;4.67;;;;;;;;;;472488;249;27561;-73
2021/07/03 06:16:29;;;;;;;5.50;4.93;;;;;;;;;;472518;249;27998;-73
2021/07/03 06:18:32;;;;;;;5.20;4.67;;;;;;;;;;472515;249;27537;-73
2021/07/03 06:20:34;;;;;;;4.50;4.10;;;;;;;;;;472503;249;28069;-73
2021/07/03 06:22:36;;;;;;;5.47;5.00;;;;;;;;;;472506;250;27617;-73
2021/07/03 06:24:38;;;;;;;4.53;4.13;;;;;;;;;;472465;250;27993;-73
2021/07/03 06:26:40;;;;;;;6.00;5.40;;;;;;;;;;472473;249;27624;-74
2021/07/03 06:28:42;;;;;;;6.00;4.67;;;;;;;;;;472512;249;28132;-73
2021/07/03 06:30:44;;;;;;;5.37;4.87;;;;;;;;;;472482;249;27557;-73
2021/07/03 06:32:46;;;;;;;5.63;5.03;;;;;;;;;;472502;249;29806;-73
2021/07/03 06:34:48;;;;;;;7.73;4.90;;;;;;;;;;472416;250;27628;-73
2021/07/03 06:36:51;;;;;;;5.07;4.57;;;;;;;;;;472536;249;28020;-73
2021/07/03 06:38:53;;;;;;;4.70;4.30;;;;;;;;;;472457;249;27727;-73
2021/07/03 06:40:55;;;;;;;4.63;4.23;;;;;;;;;;472553;250;28128;-73
2021/07/03 06:42:57;;;;;;;6.47;5.00;;;;;;;;;;472497;249;27668;-73
2021/07/03 06:44:59;;;;;;;4.93;4.33;;;;;;;;;;472515;249;27553;-73
2021/07/03 06:47:01;;;;;;;5.80;5.17;;;;;;;;;;472506;249;27563;-74
2021/07/03 06:49:03;;;;;;;5.23;4.73;;;;;;;;;;472510;249;27557;-73
2021/07/03 06:51:07;;;;;;;5.10;4.63;;;;;;;;;;472472;249;27570;-73
2021/07/03 06:53:07;;;;;;;5.30;4.80;;;;;;;;;;472439;251;27657;-73
2021/07/03 06:55:10;;;;;;;5.30;4.87;;;;;;;;;;472483;249;27656;-73
2021/07/03 06:57:12;;;;;;;5.43;4.93;;;;;;;;;;472489;249;27665;-73
2021/07/03 06:59:14;;;;;;;5.60;5.10;;;;;;;;;;472488;249;27567;-73
2021/07/03 07:01:16;;;;;;;5.43;4.93;;;;;;;;;;472492;249;27584;-73
2021/07/03 07:03:18;;;;;;;5.40;4.90;;;;;;;;;;472478;249;27601;-73
2021/07/03 07:05:20;;;;;;;5.20;4.73;;;;;;;;;;472486;249;27552;-73
2021/07/03 07:07:22;;;;;;;5.67;5.07;;;;;;;;;;472459;249;27649;-73
2021/07/03 07:09:24;;;;;;;5.43;4.83;;;;;;;;;;472506;249;27554;-73
2021/07/03 07:11:27;;;;;;;5.50;4.30;;;;;;;;;;472492;250;27679;-73
2021/07/03 07:13:29;;;;;;;5.37;4.93;;;;;;;;;;472513;249;27617;-74
2021/07/03 07:15:32;;;;;;;5.03;4.53;;;;;;;;;;472526;249;27524;-73
2021/07/03 07:17:33;;;;;;;4.80;4.40;;;;;;;;;;472440;251;27528;-73
2021/07/03 07:19:35;;;;;;;4.50;4.10;;;;;;;;;;472528;249;27514;-73
2021/07/03 07:21:37;;;;;;;5.13;4.60;;;;;;;;;;472494;249;27567;-73
2021/07/03 07:23:39;;;;;;;5.10;4.60;;;;;;;;;;472492;249;27641;-73
2021/07/03 07:25:41;;;;;;;4.87;4.43;;;;;;;;;;472494;249;27668;-73
2021/07/03 07:27:43;;;;;;;5.30;4.90;;;;;;;;;;472501;249;27542;-73
2021/07/03 07:29:45;;;;;;;5.77;4.57;;;;;;;;;;472519;249;27523;-74
2021/07/03 07:31:49;;;;;;;4.97;4.50;;;;;;;;;;472472;249;27534;-73
2021/07/03 07:33:50;;;;;;;4.90;4.50;;;;;;;;;;472462;250;27637;-73
2021/07/03 07:35:52;;;;;;;5.03;4.60;;;;;;;;;;472487;250;27560;-73
2021/07/03 07:37:54;;;;;;;4.93;4.43;;;;;;;;;;472477;249;27525;-73
2021/07/03 07:39:56;;;;;;;4.60;4.20;;;;;;;;;;472465;249;27530;-73
2021/07/03 07:41:58;;;;;;;5.37;4.87;;;;;;;;;;472474;249;27915;-73
2021/07/03 07:44:00;;;;;;;4.60;4.20;;;;;;;;;;472477;249;27741;-73
2021/07/03 07:46:02;;;;;;;4.87;4.40;;;;;;;;;;472516;249;27586;-73
2021/07/03 07:48:05;;;;;;;4.63;4.23;;;;;;;;;;472512;250;27560;-73
2021/07/03 07:50:07;;;;;;;5.00;4.50;;;;;;;;;;472498;249;27576;-74
2021/07/03 07:52:09;;;;;;;5.10;4.43;;;;;;;;;;472526;249;27685;-73
2021/07/03 07:54:11;;;;;;;4.63;4.20;;;;;;;;;;472543;249;27569;-73
2021/07/03 07:56:17;;;;;;;5.10;4.70;;;;;;;;;;472525;249;27657;-73
2021/07/03 07:58:15;;;;;;;4.73;4.33;;;;;;;;;;472355;251;27645;-73
2021/07/03 08:00:19;;;;;;;4.80;4.40;;;;;;;;;;472480;249;27657;-73
2021/07/03 08:02:19;;;;;;;5.40;4.90;;;;;;;;;;472506;249;27561;-73
2021/07/03 08:04:21;;;;;;;4.87;4.47;;;;;;;;;;472494;250;27571;-73
2021/07/03 08:06:24;;;;;;;4.93;4.33;;;;;;;;;;472481;249;27580;-73
2021/07/03 08:08:27;;;;;;;4.50;4.10;;;;;;;;;;472464;249;27601;-73
2021/07/03 08:10:28;;;;;;;4.67;4.27;;;;;;;;;;472472;250;27571;-73
2021/07/03 08:12:30;;;;;;;5.70;4.60;;;;;;;;;;472492;249;27636;-74
2021/07/03 08:14:32;;;;;;;5.00;4.60;;;;;;;;;;472470;250;27632;-73
2021/07/03 08:16:34;;;;;;;9.30;4.80;;;;;;;;;;472470;250;27637;-73
2021/07/03 08:18:36;;;;;;;4.77;4.37;;;;;;;;;;472481;249;27659;-73
2021/07/03 08:20:38;;;;;;;4.73;4.23;;;;;;;;;;472481;249;27587;-73
2021/07/03 08:22:40;;;;;;;4.53;4.13;;;;;;;;;;472470;249;27549;-73
2021/07/03 08:24:43;;;;;;;4.97;4.47;;;;;;;;;;472470;249;27558;-74
2021/07/03 08:26:46;;;;;;;5.00;4.50;;;;;;;;;;472524;249;27645;-73
2021/07/03 08:28:48;;;;;;;4.53;4.13;;;;;;;;;;472503;249;28139;-73
2021/07/03 08:30:50;;;;;;;5.20;4.70;;;;;;;;;;472475;249;27603;-73
2021/07/03 08:32:52;;;;;;;4.70;4.23;;;;;;;;;;472485;250;28069;-73
2021/07/03 08:34:54;;;;;;;4.40;4.00;;;;;;;;;;472475;249;27552;-73
2021/07/03 08:36:57;;;;;;;4.90;4.50;;;;;;;;;;472523;249;28048;-73
2021/07/03 08:38:59;;;;;;;4.47;4.10;;;;;;;;;;472496;249;27554;-73
2021/07/03 08:41:01;;;;;;;5.00;4.50;;;;;;;;;;472483;249;28209;-73
2021/07/03 08:43:03;;;;;;;4.67;4.27;;;;;;;;;;472499;249;27560;-73
2021/07/03 08:45:05;;;;;;;5.03;4.43;;;;;;;;;;472478;249;28084;-73
2021/07/03 08:47:07;;;;;;;4.60;4.23;;;;;;;;;;472486;249;27573;-73
2021/07/03 08:49:09;;;;;;;5.20;4.80;;;;;;;;;;472479;249;27985;-74
2021/07/03 08:51:11;;;;;;;5.67;4.27;;;;;;;;;;472481;249;27533;-74
2021/07/03 08:53:13;;;;;;;5.20;4.70;;;;;;;;;;472505;249;28020;-73
2021/07/03 08:55:16;;;;;;;5.10;4.60;;;;;;;;;;472502;250;27529;-74
2021/07/03 08:57:18;;;;;;;5.30;4.80;;;;;;;;;;472501;249;27987;-73
2021/07/03 08:59:20;;;;;;;5.37;4.87;;;;;;;;;;472506;249;27524;-73
2021/07/03 09:01:22;;;;;;;5.37;4.90;;;;;;;;;;472510;249;28075;-74
2021/07/03 09:03:24;;;;;;;6.00;5.10;;;;;;;;;;472519;249;27673;-73
2021/07/03 09:05:28;;;;;;;5.80;4.80;;;;;;;;;;472493;249;28058;-73
2021/07/03 09:07:28;;;;;;;5.13;4.73;;;;;;;;;;472438;250;27533;-73
2021/07/03 09:09:30;;;;;;;6.43;4.20;;;;;;;;;;472496;249;27959;-74
2021/07/03 09:11:34;;;;;;;5.60;4.43;;;;;;;;;;472511;249;27525;-73
2021/07/03 09:13:35;;;;;;;5.93;4.37;;;;;;;;;;472391;251;28084;-73
2021/07/03 09:15:37;;;;;;;4.77;4.37;;;;;;;;;;472447;250;27574;-73
2021/07/03 09:17:39;;;;;;;4.70;4.30;;;;;;;;;;472500;249;28060;-74
2021/07/03 09:19:41;;;;;;;5.03;4.60;;;;;;;;;;472511;249;27625;-73
2021/07/03 09:21:43;;;;;;;4.70;4.30;;;;;;;;;;472487;250;28090;-73
2021/07/03 09:23:45;;;;;;;5.03;4.63;;;;;;;;;;472454;249;27528;-73
2021/07/03 09:25:47;;;;;;;4.30;4.00;;;;;;;;;;472465;249;28773;-74
2021/07/03 09:27:49;;;;;;;4.60;4.20;;;;;;;;;;472473;249;27585;-73
2021/07/03 09:29:51;;;;;;;4.70;4.30;;;;;;;;;;472510;249;28115;-74
2021/07/03 09:31:54;;;;;;;4.10;3.70;;;;;;;;;;472485;249;27669;-73
2021/07/03 09:33:56;;;;;;;4.57;4.17;;;;;;;;;;472455;249;28118;-73
2021/07/03 09:35:58;;;;;;;4.57;4.17;;;;;;;;;;472537;249;27554;-74
2021/07/03 09:38:00;;;;;;;4.27;3.90;;;;;;;;;;472514;249;28117;-74
2021/07/03 09:40:02;;;;;;;4.20;3.80;;;;;;;;;;472464;249;27620;-73
2021/07/03 09:42:04;;;;;;;4.60;4.20;;;;;;;;;;472514;250;28068;-73
2021/07/03 09:44:15;;;;;;;4.20;3.80;;;;;;;;;;472474;250;27672;-74
2021/07/03 09:46:08;;;;;;;5.00;3.70;;;;;;;;;;471235;252;28030;-73
2021/07/03 09:48:11;;;;;;;4.27;3.97;;;;;;;;;;472488;249;27574;-74
2021/07/03 09:50:13;;;;;;;4.67;4.27;;;;;;;;;;472502;249;28104;-73
2021/07/03 09:52:15;;;;;;;4.30;3.90;;;;;;;;;;472477;249;27579;-73
2021/07/03 09:54:17;;;;;;;4.30;4.00;;;;;;;;;;472487;249;28087;-74
2021/07/03 09:56:19;;;;;;;5.10;4.60;;;;;;;;;;472474;250;27557;-74
2021/07/03 09:58:21;;;;;;;5.30;4.30;;;;;;;;;;472482;249;28038;-74
2021/07/03 10:00:23;;;;;;;4.30;3.90;;;;;;;;;;472467;249;27716;-73
2021/07/03 10:02:25;;;;;;;4.13;3.83;;;;;;;;;;472505;249;28037;-74
2021/07/03 10:04:27;;;;;;;3.90;3.60;;;;;;;;;;472482;249;27703;-73
2021/07/03 10:06:30;;;;;;;3.83;3.53;;;;;;;;;;472468;250;27993;-73
2021/07/03 10:08:32;;;;;;;4.10;3.80;;;;;;;;;;472487;249;27560;-73
2021/07/03 10:10:34;;;;;;;4.03;3.73;;;;;;;;;;472513;249;27995;-74
2021/07/03 10:12:36;;;;;;;3.80;3.50;;;;;;;;;;472488;249;27571;-74
2021/07/03 10:14:38;;;;;;;3.90;3.60;;;;;;;;;;472458;249;27975;-74
2021/07/03 10:16:40;;;;;;;3.80;3.50;;;;;;;;;;472512;249;27547;-74
2021/07/03 10:18:42;;;;;;;4.50;4.10;;;;;;;;;;472526;249;27970;-74
2021/07/03 10:20:44;;;;;;;4.10;3.70;;;;;;;;;;472508;249;27522;-73
2021/07/03 10:22:46;;;;;;;4.33;3.50;;;;;;;;;;472517;249;27993;-74
2021/07/03 10:24:49;;;;;;;4.30;3.90;;;;;;;;;;472495;249;27540;-73
2021/07/03 10:26:51;;;;;;;3.87;3.50;;;;;;;;;;472437;250;28091;-72
2021/07/03 10:28:53;;;;;;;3.73;3.43;;;;;;;;;;472485;249;27551;-73
2021/07/03 10:30:55;;;;;;;3.73;3.43;;;;;;;;;;472502;249;27961;-73
2021/07/03 10:32:57;;;;;;;4.17;3.87;;;;;;;;;;472496;249;27612;-74
2021/07/03 10:34:59;;;;;;;3.87;3.57;;;;;;;;;;472506;249;28005;-73
2021/07/03 10:37:05;;;;;;;3.70;3.40;;;;;;;;;;472535;249;27549;-74
2021/07/03 10:39:03;;;;;;;4.27;3.87;;;;;;;;;;472063;252;27967;-73
2021/07/03 10:41:05;;;;;;;4.33;4.00;;;;;;;;;;472489;249;27591;-73
2021/07/03 10:43:08;;;;;;;3.93;3.63;;;;;;;;;;472495;249;28174;-74
2021/07/03 10:45:10;;;;;;;4.20;3.90;;;;;;;;;;472537;249;27599;-74
2021/07/03 10:47:12;;;;;;;4.03;3.73;;;;;;;;;;472484;249;28021;-73
2021/07/03 10:49:14;;;;;;;4.80;4.10;;;;;;;;;;472487;249;27562;-74
2021/07/03 10:51:16;;;;;;;5.13;4.07;;;;;;;;;;472504;249;28036;-73
2021/07/03 10:53:18;;;;;;;4.00;3.70;;;;;;;;;;472510;250;27584;-74
2021/07/03 10:55:20;;;;;;;4.03;3.73;;;;;;;;;;472517;249;28155;-74
2021/07/03 10:57:22;;;;;;;5.57;4.40;;;;;;;;;;472493;249;27633;-73
2021/07/03 10:59:24;;;;;;;4.10;3.70;;;;;;;;;;472485;249;28033;-74
2021/07/03 11:01:27;;;;;;;4.63;3.80;;;;;;;;;;472470;249;27664;-74
2021/07/03 11:03:29;;;;;;;3.93;3.63;;;;;;;;;;472487;249;28175;-73
2021/07/03 11:05:31;;;;;;;3.57;3.27;;;;;;;;;;472465;249;27604;-74
2021/07/03 11:07:33;;;;;;;3.60;3.40;;;;;;;;;;472492;249;28160;-74
2021/07/03 11:09:35;;;;;;;4.10;3.80;;;;;;;;;;472475;249;27673;-74
2021/07/03 11:11:37;;;;;;;3.60;3.40;;;;;;;;;;472495;249;28063;-74
2021/07/03 11:13:39;;;;;;;4.63;3.93;;;;;;;;;;472510;250;27544;-74
2021/07/03 11:15:41;;;;;;;4.23;3.87;;;;;;;;;;472494;249;27629;-74
2021/07/03 11:17:44;;;;;;;4.00;3.70;;;;;;;;;;472505;249;27537;-74
2021/07/03 11:19:55;;;;;;;3.97;3.67;;;;;;;;;;472489;249;27517;-74
2021/07/03 11:21:48;;;;;;;3.87;3.57;;;;;;;;;;471233;252;27582;-74
2021/07/03 11:23:50;;;;;;;3.97;3.67;;;;;;;;;;472496;249;27597;-74
2021/07/03 11:25:52;;;;;;;4.23;3.93;;;;;;;;;;472497;250;27602;-74
2021/07/03 11:27:54;;;;;;;4.07;3.77;;;;;;;;;;472528;249;27641;-74
2021/07/03 11:29:56;;;;;;;3.73;3.43;;;;;;;;;;472457;249;27747;-74
2021/07/03 11:31:58;;;;;;;3.87;3.57;;;;;;;;;;472497;250;27536;-74
2021/07/03 11:34:01;;;;;;;4.17;3.87;;;;;;;;;;472489;249;27768;-74
2021/07/03 11:36:03;;;;;;;4.50;4.10;;;;;;;;;;472528;250;27988;-74
2021/07/03 11:38:05;;;;;;;4.20;3.80;;;;;;;;;;472539;249;27849;-74
2021/07/03 11:40:07;;;;;;;4.10;3.70;;;;;;;;;;472496;249;27550;-74
2021/07/03 11:42:09;;;;;;;4.77;3.90;;;;;;;;;;472523;249;27570;-74
2021/07/03 11:44:11;;;;;;;4.30;3.67;;;;;;;;;;472514;249;27589;-74
2021/07/03 11:46:13;;;;;;;4.17;3.80;;;;;;;;;;472500;249;27672;-74
2021/07/03 11:48:15;;;;;;;3.83;3.53;;;;;;;;;;472478;249;27594;-73
2021/07/03 11:50:17;;;;;;;4.03;3.73;;;;;;;;;;472445;249;27596;-74
2021/07/03 11:52:19;;;;;;;4.77;4.20;;;;;;;;;;472523;250;27557;-74
2021/07/03 11:54:22;;;;;;;3.70;3.40;;;;;;;;;;472514;249;27580;-74
2021/07/03 11:56:24;;;;;;;4.10;3.80;;;;;;;;;;472508;249;27560;-73
2021/07/03 11:58:26;;;;;;;4.30;3.90;;;;;;;;;;472495;249;27684;-74
2021/07/03 12:00:28;;;;;;;4.10;3.70;;;;;;;;;;472495;249;27565;-74
2021/07/03 12:02:30;;;;;;;3.90;3.60;;;;;;;;;;472502;249;27642;-74
2021/07/03 12:04:32;;;;;;;3.83;3.53;;;;;;;;;;472508;249;27631;-73
2021/07/03 12:06:34;;;;;;;3.80;3.50;;;;;;;;;;472507;249;27692;-74
2021/07/03 12:08:37;;;;;;;4.23;3.90;;;;;;;;;;472490;249;27778;-73
2021/07/03 12:10:38;;;;;;;3.50;3.20;;;;;;;;;;472509;249;27577;-74
2021/07/03 12:12:41;;;;;;;4.23;3.83;;;;;;;;;;472500;249;27524;-73
2021/07/03 12:14:43;;;;;;;3.20;2.90;;;;;;;;;;472506;249;27531;-73